Home   Weather   USA   New York   Past weeks
Flag for USA

Past Weather in New York, New York, USA — April 2022

Currently: 74 °F. Sunny. (Weather station: New York City - Central Park, USA). See more current weather

April 2022 Weather in New York — Graph

°F

High & Low Weather Summary for April 2022

 TemperatureHumidityPressure
High78 °F (Apr 14, 12:51 pm)97% (Apr 7, 10:53 pm)30.51 "Hg (Apr 7, 10:53 pm)
Low38 °F (Apr 2, 7:51 am)9% (Apr 29, 5:51 pm)29.43 "Hg (Apr 1, 2:51 am)
Average52 °F53%29.98 "Hg
* Reported Apr 1 12:51 am — Apr 30 11:51 pm, New York. Weather by CustomWeather, © 2024

Note: Actual official high and low records may vary slightly from our data, if they occured in-between our weather recording intervals... More about our weather records

New York Weather History for April 1, 2022

Scroll right to see more
 ConditionsComfort  
Time TempWeatherWind HumidityBarometerVisibility
12:51 am
Fri, Apr 1
61 °FOvercast.5 mph83%29.46 "Hg10 mi
1:36 am61 °FMostly cloudy.3 mph87%29.47 "Hg10 mi
1:51 am61 °FMostly cloudy.No wind87%29.43 "Hg10 mi
2:03 am61 °FMostly cloudy.No wind90%29.45 "Hg10 mi
2:35 am59 °FRain. Fog.6 mph93%29.46 "Hg1 mi
2:51 am59 °FRain. Fog.5 mph93%29.43 "Hg2 mi
3:07 am59 °FHeavy rain. Fog.3 mph93%29.46 "Hg2 mi
3:19 am59 °FLight rain. Fog.No wind93%29.46 "Hg3 mi
3:51 am59 °FOvercast.5 mph90%29.46 "Hg10 mi
4:51 am58 °FPassing clouds.9 mph81%29.44 "Hg10 mi
5:51 am55 °FLight rain. Partly cloudy.6 mph83%29.47 "Hg10 mi
6:12 am55 °FLight rain. Passing clouds.N/A77%29.55 "Hg10 mi
6:28 am53 °FLight rain. Mostly cloudy.6 mph80%29.54 "Hg10 mi
6:51 am53 °FBroken clouds.3 mph80%29.51 "Hg10 mi
7:51 am51 °FOvercast.6 mph74%29.57 "Hg10 mi
8:51 am51 °FOvercast.5 mph71%29.55 "Hg10 mi
9:51 am52 °FBroken clouds.6 mph66%29.57 "Hg10 mi
10:51 am54 °FPartly sunny.12 mph51%29.59 "Hg10 mi
11:51 am55 °FPartly sunny.6 mph49%29.59 "Hg10 mi
12:51 pm56 °FPartly sunny.12 mph42%29.57 "Hg10 mi
1:51 pm55 °FBroken clouds.10 mph37%29.58 "Hg10 mi
2:51 pm54 °FPartly sunny.15 mph35%29.57 "Hg10 mi
3:51 pm52 °FMostly cloudy.12 mph41%29.61 "Hg10 mi
4:51 pm52 °FOvercast.17 mph38%29.64 "Hg10 mi
5:51 pm49 °FMostly cloudy.9 mph46%29.70 "Hg10 mi
6:51 pm47 °FMostly cloudy.8 mph48%29.74 "Hg10 mi
7:51 pm45 °FPartly cloudy.15 mph49%29.78 "Hg10 mi
8:51 pm45 °FClear.12 mph42%29.83 "Hg10 mi
9:51 pm45 °FOvercast.12 mph40%29.85 "Hg10 mi
10:51 pm45 °FOvercast.7 mph38%29.88 "Hg10 mi
11:51 pm44 °FOvercast.12 mph37%29.91 "Hg10 mi
Weather by CustomWeather, © 2024

See weather overview